createdAt,value
2016-09-28T08:48:48.675Z,1024.62
2016-09-28T08:53:48.622Z,1024.69
2016-09-28T08:58:48.583Z,1024.68
2016-09-28T09:03:48.548Z,1024.55
2016-09-28T09:08:48.516Z,1024.53
2016-09-28T09:13:48.488Z,1024.51
2016-09-28T09:23:48.430Z,1024.72
2016-09-28T09:28:48.400Z,1024.61
2016-09-28T09:33:48.361Z,1024.8
2016-09-28T09:38:48.320Z,1025.46
2016-09-28T09:43:48.282Z,1024.48
2016-09-28T09:48:48.247Z,1024.66
2016-09-28T09:53:48.209Z,1024.7
2016-09-28T09:58:48.173Z,1025.14
2016-09-28T10:03:48.135Z,1028.04
2016-09-28T10:08:48.099Z,1025.45
2016-09-28T10:13:48.068Z,1024.54
2016-09-28T10:18:48.021Z,1024.53
2016-09-28T10:23:47.984Z,1024.62
2016-09-28T10:28:47.949Z,1024.41
2016-09-28T10:33:47.911Z,1024.36
2016-09-28T10:38:47.877Z,1024.27
2016-09-28T10:43:47.839Z,1024.26
2016-09-28T10:48:47.807Z,1024.25
2016-09-28T10:53:47.773Z,1024.3
2016-09-28T10:58:47.733Z,1024.26
2016-09-28T11:03:47.697Z,1024.31
2016-09-28T11:08:47.669Z,1024.34
2016-09-28T11:13:47.627Z,1024.27
2016-09-28T11:18:47.591Z,1024.3
2016-09-28T11:23:47.558Z,1024.31
2016-09-28T11:28:47.521Z,1024.3
2016-09-28T11:33:47.484Z,1024.3
2016-09-28T11:38:47.450Z,1024.19
2016-09-28T11:43:47.414Z,1024.15
2016-09-28T11:48:47.377Z,1024.15
2016-09-28T11:53:47.343Z,1024.09
2016-09-28T11:58:47.308Z,1024.09
2016-09-28T12:03:47.274Z,1024.16
2016-09-28T12:08:47.239Z,1024.09
2016-09-28T12:13:47.217Z,1024.1
2016-09-28T12:18:47.170Z,1024.08
2016-09-28T12:23:47.136Z,1024
2016-09-28T12:28:47.099Z,1023.94
2016-09-28T12:33:47.062Z,1023.99
2016-09-28T12:38:47.019Z,1024.06
2016-09-28T12:43:46.979Z,1023.96
2016-09-28T12:48:46.949Z,1023.92
2016-09-28T12:53:46.917Z,1023.91
2016-09-28T12:58:46.888Z,1023.88
2016-09-28T13:03:46.852Z,1023.83
2016-09-28T13:08:46.817Z,1023.87
2016-09-28T13:13:46.783Z,1023.83
2016-09-28T13:18:46.746Z,1023.72
2016-09-28T13:23:46.715Z,1023.75
2016-09-28T13:28:46.681Z,1023.76
2016-09-28T13:33:46.650Z,1023.76
2016-09-28T13:38:46.617Z,1023.69
2016-09-28T13:43:46.592Z,1023.73
2016-09-28T13:48:46.552Z,1023.7
2016-09-28T13:53:46.519Z,1023.59
2016-09-28T13:58:46.487Z,1023.62
2016-09-28T14:03:46.451Z,1023.55
2016-09-28T14:08:46.420Z,1023.44
2016-09-28T14:13:46.388Z,1023.46
2016-09-28T14:18:46.361Z,1023.48
2016-09-28T14:23:46.328Z,1023.47
2016-09-28T14:28:46.295Z,1023.47
2016-09-28T14:33:46.263Z,1023.58
2016-09-28T14:38:46.228Z,1023.59
2016-09-28T14:43:46.200Z,1023.64
2016-09-28T14:48:46.166Z,1023.68
2016-09-28T14:53:46.132Z,1023.65
2016-09-28T14:58:46.103Z,1023.63
2016-09-28T15:03:46.069Z,1023.64
2016-09-28T15:08:46.034Z,1023.61
2016-09-28T15:13:46.003Z,1023.61
2016-09-28T15:18:45.968Z,1023.53
2016-09-28T15:23:45.938Z,1023.58
2016-09-28T15:28:45.910Z,1023.55
2016-09-28T15:33:45.879Z,1023.52
2016-09-28T15:38:45.851Z,1023.48
2016-09-28T15:43:45.822Z,1023.58
2016-09-28T15:48:45.790Z,1023.63
2016-09-28T15:53:45.760Z,1023.6
2016-09-28T15:58:45.729Z,1023.57
2016-09-28T16:03:45.695Z,1023.51
2016-09-28T16:08:45.663Z,1023.53
2016-09-28T16:13:45.629Z,1023.55
2016-09-28T16:18:45.597Z,1023.49
2016-09-28T16:23:45.563Z,1023.47
2016-09-28T16:28:45.532Z,1023.45
2016-09-28T16:33:45.499Z,1023.55
2016-09-28T16:38:45.469Z,1023.54
2016-09-28T16:43:45.438Z,1023.52
2016-09-28T16:48:45.407Z,1023.48
2016-09-28T16:53:45.383Z,1023.63
2016-09-28T16:58:45.346Z,1023.65
2016-09-28T17:03:45.315Z,1023.53
2016-09-28T17:08:45.278Z,1023.56
2016-09-28T17:13:45.247Z,1023.47
2016-09-28T17:18:45.219Z,1023.41
2016-09-28T17:23:45.189Z,1023.33
2016-09-28T17:28:45.167Z,1023.32
2016-09-28T17:33:45.141Z,1023.28
2016-09-28T17:38:45.121Z,1023.28
2016-09-28T17:43:45.092Z,1023.22
2016-09-28T17:48:45.064Z,1023.33
2016-09-28T17:53:45.029Z,1023.37
2016-09-28T17:58:44.997Z,1023.37
2016-09-28T18:03:44.964Z,1023.32
2016-09-28T18:08:44.935Z,1023.23
2016-09-28T18:13:44.907Z,1023.26
2016-09-28T18:18:44.877Z,1023.28
2016-09-28T18:23:44.842Z,1023.22
2016-09-28T18:28:44.809Z,1023.12
2016-09-28T18:33:44.774Z,1023.06
2016-09-28T18:38:44.741Z,1023.08
2016-09-28T18:43:44.704Z,1023.08
2016-09-28T18:48:44.666Z,1023.03
2016-09-28T18:53:44.628Z,1023.08
2016-09-28T18:58:44.595Z,1022.95
2016-09-28T19:03:44.558Z,1022.75
2016-09-28T19:08:44.521Z,1022.78
2016-09-28T19:13:44.484Z,1022.69
2016-09-28T19:18:44.444Z,1022.66
2016-09-28T19:23:44.404Z,1022.65
2016-09-28T19:28:44.366Z,1022.72
2016-09-28T19:33:44.328Z,1022.66
2016-09-28T19:38:44.284Z,1022.61
2016-09-28T19:43:44.243Z,1022.55
2016-09-28T19:48:44.201Z,1022.53
2016-09-28T19:53:44.164Z,1022.48
2016-09-28T19:58:44.123Z,1022.47
2016-09-28T20:03:44.083Z,1022.44
2016-09-28T20:08:44.045Z,1022.38
2016-09-28T20:13:44.006Z,1022.29
2016-09-28T20:18:43.967Z,1022.25
2016-09-28T20:23:43.927Z,1022.35
2016-09-28T20:28:43.887Z,1022.31
2016-09-28T20:33:43.849Z,1022.29
2016-09-28T20:38:43.810Z,1022.25
2016-09-28T20:43:43.776Z,1022.19
2016-09-28T20:48:43.733Z,1022.26
2016-09-28T20:53:43.695Z,1022.27
2016-09-28T20:58:43.653Z,1022.27
2016-09-28T21:03:43.613Z,1022.17
2016-09-28T21:08:43.575Z,1022.17
2016-09-28T21:13:43.533Z,1022.12
2016-09-28T21:18:43.495Z,1022.15
2016-09-28T21:23:43.454Z,1022.16
